createdAt,value
2017-12-04T00:00:57.933Z,98.40
2017-12-04T00:02:03.281Z,98.30
2017-12-04T00:03:08.431Z,98.20
2017-12-04T00:04:14.660Z,98.40
2017-12-04T00:05:19.888Z,98.40
2017-12-04T00:06:25.683Z,98.60
2017-12-04T00:07:30.870Z,98.40
2017-12-04T00:08:36.769Z,98.60
2017-12-04T00:09:42.376Z,98.60
2017-12-04T00:10:48.048Z,98.70
2017-12-04T00:11:53.334Z,98.70
2017-12-04T00:12:59.215Z,98.60
2017-12-04T00:14:04.303Z,98.60
2017-12-04T00:15:10.720Z,98.50
2017-12-04T00:16:16.391Z,98.50
2017-12-04T00:17:22.292Z,98.60
2017-12-04T00:18:28.784Z,98.60
2017-12-04T00:19:35.333Z,98.60
2017-12-04T00:20:41.136Z,98.60
2017-12-04T00:21:46.236Z,98.70
2017-12-04T00:22:51.583Z,98.60
2017-12-04T00:23:56.917Z,98.50
2017-12-04T00:25:02.015Z,98.40
2017-12-04T00:26:08.115Z,98.40
2017-12-04T00:27:13.158Z,98.40
2017-12-04T00:28:18.317Z,98.30
2017-12-04T00:29:24.209Z,98.30
2017-12-04T00:30:30.088Z,98.30
2017-12-04T00:31:36.198Z,98.30
2017-12-04T00:32:41.285Z,98.30
2017-12-04T00:33:47.319Z,98.40
2017-12-04T00:34:53.689Z,98.60
2017-12-04T00:35:59.473Z,98.70
2017-12-04T00:37:04.820Z,98.80
2017-12-04T00:38:09.799Z,98.90
2017-12-04T00:39:15.326Z,99.10
2017-12-04T00:40:20.977Z,99.30
2017-12-04T00:41:26.065Z,99.30
2017-12-04T00:42:32.739Z,99.00
2017-12-04T00:43:38.052Z,99.00
2017-12-04T00:44:43.197Z,98.90
2017-12-04T00:45:49.038Z,98.80
2017-12-04T00:46:54.963Z,98.80
2017-12-04T00:48:00.682Z,98.80
2017-12-04T00:49:05.989Z,98.80
2017-12-04T00:50:11.672Z,98.60
2017-12-04T00:51:16.766Z,98.70
2017-12-04T00:52:22.198Z,98.80
2017-12-04T00:53:27.815Z,98.80
2017-12-04T00:54:33.220Z,98.80
2017-12-04T00:55:39.244Z,98.70
2017-12-04T00:56:44.598Z,98.70
2017-12-04T00:57:50.826Z,98.90
2017-12-04T00:58:56.000Z,98.90
2017-12-04T01:00:02.414Z,99.10
2017-12-04T01:01:08.415Z,99.10
2017-12-04T01:02:13.403Z,99.20
2017-12-04T01:03:19.768Z,99.20
2017-12-04T01:04:25.536Z,99.00
2017-12-04T01:05:30.601Z,99.00
2017-12-04T01:06:36.646Z,98.90
2017-12-04T01:07:42.127Z,99.10
2017-12-04T01:08:48.137Z,99.10
2017-12-04T01:09:53.525Z,98.50
2017-12-04T01:10:58.797Z,98.40
2017-12-04T01:12:04.665Z,98.40
2017-12-04T01:13:10.236Z,98.50
2017-12-04T01:14:15.633Z,98.50
2017-12-04T01:15:21.901Z,98.50
2017-12-04T01:16:28.488Z,98.50
2017-12-04T01:17:33.938Z,98.20
2017-12-04T01:18:39.411Z,98.40
2017-12-04T01:19:45.750Z,98.30
2017-12-04T01:20:51.721Z,98.30
2017-12-04T01:21:57.556Z,98.20
2017-12-04T01:23:03.324Z,98.00
2017-12-04T01:24:09.793Z,97.90
2017-12-04T01:25:15.878Z,97.90
2017-12-04T01:26:21.847Z,98.00
2017-12-04T01:27:27.938Z,98.00
2017-12-04T01:28:33.020Z,98.00
2017-12-04T01:29:40.661Z,98.20
2017-12-04T01:30:45.775Z,98.20
2017-12-04T01:31:51.760Z,98.10
2017-12-04T01:32:57.575Z,98.30
2017-12-04T01:34:03.045Z,98.50
2017-12-04T01:35:08.661Z,98.60
2017-12-04T01:36:13.785Z,98.30
2017-12-04T01:37:19.183Z,98.40
2017-12-04T01:38:24.357Z,98.60
2017-12-04T01:39:30.126Z,98.40
2017-12-04T01:40:38.740Z,98.30
2017-12-04T01:41:44.648Z,98.30
2017-12-04T01:42:50.642Z,98.30
2017-12-04T01:43:56.347Z,98.30
2017-12-04T01:45:03.057Z,98.30
2017-12-04T01:46:08.704Z,98.00
2017-12-04T01:47:14.059Z,98.50
2017-12-04T01:48:19.548Z,98.50
2017-12-04T01:49:24.658Z,98.60
2017-12-04T01:50:30.738Z,98.80
2017-12-04T01:51:35.793Z,98.80
2017-12-04T01:52:41.518Z,98.80
2017-12-04T01:53:46.700Z,98.80
2017-12-04T01:54:52.649Z,98.90
2017-12-04T01:55:59.038Z,98.80
2017-12-04T01:57:04.766Z,98.80
2017-12-04T01:58:10.117Z,98.90
2017-12-04T01:59:15.132Z,98.90
2017-12-04T02:00:20.376Z,99.10
2017-12-04T02:01:25.806Z,99.00
2017-12-04T02:02:32.013Z,99.00
2017-12-04T02:03:37.854Z,99.00
2017-12-04T02:04:43.898Z,99.00
2017-12-04T02:05:49.897Z,99.00
2017-12-04T02:06:55.536Z,99.10
2017-12-04T02:08:01.622Z,99.00
2017-12-04T02:09:07.956Z,98.70
2017-12-04T02:10:13.918Z,98.70
2017-12-04T02:11:20.211Z,98.70
2017-12-04T02:12:25.418Z,98.90
2017-12-04T02:13:31.230Z,98.90
2017-12-04T02:14:36.874Z,99.20
2017-12-04T02:15:42.388Z,99.00
2017-12-04T02:16:47.483Z,99.00
2017-12-04T02:17:53.244Z,99.10
2017-12-04T02:18:59.090Z,99.10
2017-12-04T02:20:04.739Z,99.20
2017-12-04T02:21:10.046Z,98.90
2017-12-04T02:22:15.873Z,98.90
2017-12-04T02:23:21.061Z,98.60
2017-12-04T02:24:27.691Z,98.80
2017-12-04T02:25:32.823Z,98.80
2017-12-04T02:26:38.757Z,98.80
2017-12-04T02:27:44.261Z,98.70
2017-12-04T02:28:49.759Z,98.70
2017-12-04T02:29:55.127Z,98.70
2017-12-04T02:31:00.633Z,98.80
2017-12-04T02:32:06.509Z,98.90
2017-12-04T02:33:12.481Z,98.90
2017-12-04T02:34:18.065Z,99.00
2017-12-04T02:35:23.418Z,99.00
2017-12-04T02:36:29.167Z,98.90
2017-12-04T02:37:34.859Z,98.90
2017-12-04T02:38:40.368Z,99.00
2017-12-04T02:39:46.015Z,99.00
2017-12-04T02:40:52.139Z,98.90
2017-12-04T02:41:57.310Z,98.90
2017-12-04T02:43:02.686Z,98.70
2017-12-04T02:44:08.211Z,98.60
2017-12-04T02:45:14.412Z,98.50
2017-12-04T02:46:19.920Z,98.40
2017-12-04T02:47:25.156Z,98.60
2017-12-04T02:48:30.991Z,98.60
2017-12-04T02:49:36.920Z,98.80
2017-12-04T02:50:42.712Z,98.90
2017-12-04T02:51:48.265Z,98.70
2017-12-04T02:52:55.276Z,98.80
2017-12-04T02:54:00.860Z,98.80
2017-12-04T02:55:06.421Z,98.80
2017-12-04T02:56:12.396Z,98.80
2017-12-04T02:57:19.414Z,98.80
2017-12-04T02:58:24.571Z,98.80
2017-12-04T02:59:30.824Z,98.90
2017-12-04T03:00:36.980Z,99.00
2017-12-04T03:01:42.792Z,99.00
2017-12-04T03:02:48.472Z,99.00
2017-12-04T03:03:53.849Z,99.00
2017-12-04T03:04:59.406Z,98.90
2017-12-04T03:06:04.844Z,98.80
2017-12-04T03:07:09.966Z,98.80
2017-12-04T03:08:15.604Z,98.80
2017-12-04T03:09:21.964Z,98.60
2017-12-04T03:10:27.044Z,98.60
2017-12-04T03:11:32.635Z,98.60
2017-12-04T03:12:38.760Z,98.50
2017-12-04T03:13:44.427Z,98.50
2017-12-04T03:14:50.728Z,98.40
2017-12-04T03:15:56.635Z,98.40
2017-12-04T03:17:02.424Z,98.30
2017-12-04T03:18:08.108Z,97.60
2017-12-04T03:19:13.968Z,97.60
2017-12-04T03:20:19.737Z,97.70
2017-12-04T03:21:25.521Z,97.90
2017-12-04T03:22:31.115Z,98.20
2017-12-04T03:23:37.115Z,98.20
2017-12-04T03:24:43.376Z,98.50
2017-12-04T03:25:49.117Z,98.50
2017-12-04T03:26:55.104Z,98.60
2017-12-04T03:28:01.117Z,98.70
2017-12-04T03:29:07.295Z,98.70
2017-12-04T03:30:13.015Z,98.70
2017-12-04T03:31:18.311Z,98.60
2017-12-04T03:32:23.623Z,98.00
2017-12-04T03:33:29.063Z,98.10
2017-12-04T03:34:34.641Z,98.30
2017-12-04T03:35:40.432Z,98.30
2017-12-04T03:36:46.240Z,98.30
2017-12-04T03:37:51.780Z,98.40
2017-12-04T03:38:57.132Z,98.40
2017-12-04T03:40:03.267Z,98.50
2017-12-04T03:41:09.158Z,98.60
2017-12-04T03:42:14.595Z,98.50
2017-12-04T03:43:19.859Z,98.70
2017-12-04T03:44:26.341Z,98.80
2017-12-04T03:45:31.660Z,98.90
2017-12-04T03:46:37.434Z,98.80
2017-12-04T03:47:43.140Z,98.70
2017-12-04T03:48:49.089Z,98.60
2017-12-04T03:49:54.750Z,98.80
2017-12-04T03:50:59.872Z,98.80
2017-12-04T03:52:05.302Z,98.70
2017-12-04T03:53:10.404Z,98.70
2017-12-04T03:54:16.525Z,98.70
2017-12-04T03:55:22.394Z,98.70
2017-12-04T03:56:28.670Z,98.90
2017-12-04T03:57:34.541Z,98.90
2017-12-04T03:58:40.943Z,99.10
2017-12-04T03:59:46.932Z,99.10
2017-12-04T04:00:52.556Z,99.20
2017-12-04T04:01:58.168Z,99.20
2017-12-04T04:03:03.735Z,99.10
2017-12-04T04:04:08.939Z,99.10
2017-12-04T04:05:14.940Z,99.00
2017-12-04T04:06:19.973Z,99.00
2017-12-04T04:07:25.785Z,99.10
2017-12-04T04:08:30.946Z,98.70
2017-12-04T04:09:36.864Z,98.60
2017-12-04T04:10:41.960Z,98.60
2017-12-04T04:11:47.567Z,98.60
2017-12-04T04:12:53.193Z,98.60
2017-12-04T04:13:58.423Z,98.50
2017-12-04T04:15:04.395Z,98.50
2017-12-04T04:16:09.735Z,98.60
2017-12-04T04:17:14.795Z,98.60
2017-12-04T04:18:20.255Z,98.50
2017-12-04T04:19:26.161Z,98.20
2017-12-04T04:20:31.288Z,98.20
2017-12-04T04:21:36.790Z,97.90
2017-12-04T04:22:42.732Z,97.80
2017-12-04T04:23:47.999Z,97.80
2017-12-04T04:24:53.484Z,98.00
2017-12-04T04:25:59.941Z,98.40
2017-12-04T04:27:06.095Z,98.40
2017-12-04T04:28:11.247Z,98.40
2017-12-04T04:29:16.872Z,98.40
2017-12-04T04:30:22.080Z,98.30
2017-12-04T04:31:27.844Z,97.70
2017-12-04T04:32:32.910Z,97.70
2017-12-04T04:33:37.985Z,97.70
2017-12-04T04:34:43.057Z,97.60
2017-12-04T04:35:48.646Z,97.70
2017-12-04T04:36:53.692Z,97.80
2017-12-04T04:37:59.228Z,97.80
2017-12-04T04:39:04.417Z,97.70
2017-12-04T04:40:10.606Z,97.90
2017-12-04T04:41:16.893Z,98.00
2017-12-04T04:42:22.575Z,98.10
2017-12-04T04:43:28.020Z,97.90
2017-12-04T04:44:33.134Z,97.80
2017-12-04T04:45:39.015Z,97.70
2017-12-04T04:46:45.421Z,97.60
2017-12-04T04:47:51.351Z,97.90
2017-12-04T04:48:56.930Z,97.90
2017-12-04T04:50:02.025Z,97.90
2017-12-04T04:51:07.381Z,97.80
2017-12-04T04:52:12.606Z,97.50
2017-12-04T04:53:17.957Z,97.50
2017-12-04T04:54:23.137Z,97.60
2017-12-04T04:55:28.847Z,97.60
2017-12-04T04:56:34.161Z,97.50
2017-12-04T04:57:39.305Z,97.60
2017-12-04T04:58:44.392Z,97.60
2017-12-04T04:59:49.956Z,97.60
2017-12-04T05:00:54.970Z,97.40
2017-12-04T05:02:00.379Z,97.40
2017-12-04T05:03:05.474Z,97.40
2017-12-04T05:04:11.887Z,97.20
2017-12-04T05:05:17.278Z,97.10
2017-12-04T05:06:23.134Z,97.50
2017-12-04T05:07:29.121Z,97.70
2017-12-04T05:08:34.632Z,97.70
2017-12-04T05:09:39.781Z,97.70
2017-12-04T05:10:44.808Z,97.60
2017-12-04T05:11:50.084Z,97.60
2017-12-04T05:12:56.393Z,97.10
2017-12-04T05:14:01.635Z,97.00
2017-12-04T05:15:07.065Z,97.10
2017-12-04T05:16:12.213Z,97.30
2017-12-04T05:17:17.911Z,97.50
2017-12-04T05:18:23.107Z,97.70
2017-12-04T05:19:28.370Z,98.00
2017-12-04T05:20:34.060Z,98.10
2017-12-04T05:21:40.181Z,98.10
2017-12-04T05:22:45.386Z,98.10
2017-12-04T05:23:50.769Z,98.30
2017-12-04T05:24:57.335Z,98.50
2017-12-04T05:26:03.407Z,98.40
2017-12-04T05:27:08.491Z,98.40
2017-12-04T05:28:13.547Z,98.30
2017-12-04T05:29:18.606Z,98.50
2017-12-04T05:30:23.612Z,98.60
2017-12-04T05:31:29.494Z,98.40
2017-12-04T05:32:34.772Z,98.50
2017-12-04T05:33:39.905Z,98.50
2017-12-04T05:34:45.192Z,98.40
2017-12-04T05:35:50.341Z,98.30
2017-12-04T05:36:56.251Z,98.50
2017-12-04T05:38:01.618Z,98.50
2017-12-04T05:39:07.604Z,98.50
2017-12-04T05:40:12.628Z,98.50
2017-12-04T05:41:17.778Z,98.60
2017-12-04T05:42:22.788Z,98.70
2017-12-04T05:43:28.163Z,98.60
2017-12-04T05:44:34.031Z,98.70
2017-12-04T05:45:39.226Z,98.70
2017-12-04T05:46:44.427Z,98.80
2017-12-04T05:47:49.426Z,98.80
2017-12-04T05:48:54.617Z,99.00
2017-12-04T05:50:00.534Z,99.00
2017-12-04T05:51:05.931Z,99.10
2017-12-04T05:52:11.111Z,99.20
2017-12-04T05:53:16.856Z,99.30
2017-12-04T05:54:23.351Z,99.30
2017-12-04T05:55:30.106Z,99.40
2017-12-04T05:56:36.346Z,99.30
2017-12-04T05:57:41.437Z,99.20
2017-12-04T05:58:46.670Z,99.60
2017-12-04T05:59:51.718Z,99.30
2017-12-04T06:00:57.935Z,99.20
2017-12-04T06:02:03.131Z,99.20
2017-12-04T06:03:08.336Z,99.20
2017-12-04T06:04:13.441Z,99.00
2017-12-04T06:05:18.639Z,98.90
2017-12-04T06:06:23.807Z,99.00
2017-12-04T06:07:29.777Z,99.00
2017-12-04T06:08:36.632Z,99.00
2017-12-04T06:09:41.762Z,99.20
2017-12-04T06:10:46.860Z,99.00
2017-12-04T06:11:52.029Z,99.10
2017-12-04T06:12:57.328Z,98.80
2017-12-04T06:14:03.298Z,98.90
2017-12-04T06:15:08.502Z,98.90
2017-12-04T06:16:14.359Z,99.10
2017-12-04T06:17:19.590Z,99.10
2017-12-04T06:18:24.732Z,99.00
2017-12-04T06:19:29.870Z,99.00
2017-12-04T06:20:34.995Z,99.00
2017-12-04T06:21:40.068Z,99.20
2017-12-04T06:22:46.195Z,99.30
2017-12-04T06:23:51.549Z,99.30
2017-12-04T06:24:56.649Z,99.40
2017-12-04T06:26:01.869Z,99.40
2017-12-04T06:27:06.953Z,99.40
2017-12-04T06:28:11.965Z,99.40
2017-12-04T06:29:18.045Z,99.40
2017-12-04T06:30:23.258Z,99.50
2017-12-04T06:31:28.325Z,99.50
2017-12-04T06:32:33.433Z,99.40
2017-12-04T06:33:38.592Z,99.40
2017-12-04T06:34:43.854Z,99.40
2017-12-04T06:35:49.658Z,99.30
2017-12-04T06:36:54.933Z,99.30
2017-12-04T06:37:59.986Z,99.20
2017-12-04T06:39:05.272Z,99.10
2017-12-04T06:40:11.221Z,99.10
2017-12-04T06:41:17.370Z,99.00
2017-12-04T06:42:23.172Z,98.90
2017-12-04T06:43:28.203Z,98.90
2017-12-04T06:44:33.417Z,99.00
2017-12-04T06:45:38.646Z,99.00
2017-12-04T06:46:43.744Z,98.90
2017-12-04T06:47:48.898Z,99.00
2017-12-04T06:48:54.168Z,99.00
2017-12-04T06:49:59.996Z,99.00
2017-12-04T06:51:05.203Z,99.00
2017-12-04T06:52:10.283Z,98.90
2017-12-04T06:53:15.383Z,99.00
2017-12-04T06:54:21.385Z,98.80
2017-12-04T06:55:26.726Z,98.80
2017-12-04T06:56:32.067Z,98.80
2017-12-04T06:57:37.401Z,98.80
2017-12-04T06:58:42.439Z,98.90
2017-12-04T06:59:48.264Z,99.10
2017-12-04T07:00:53.384Z,99.10
2017-12-04T07:01:58.536Z,99.10
2017-12-04T07:03:03.716Z,99.00
2017-12-04T07:04:08.863Z,99.00
2017-12-04T07:05:13.959Z,98.80
2017-12-04T07:06:18.983Z,98.50
2017-12-04T07:07:24.068Z,98.60
2017-12-04T07:08:29.433Z,98.70
2017-12-04T07:09:34.407Z,98.80
2017-12-04T07:10:39.487Z,98.70
2017-12-04T07:11:44.554Z,98.60
2017-12-04T07:12:49.580Z,98.70
2017-12-04T07:13:54.653Z,98.60
2017-12-04T07:14:59.685Z,98.70
2017-12-04T07:16:04.786Z,98.90
2017-12-04T07:17:10.633Z,99.20
2017-12-04T07:18:16.553Z,99.30
2017-12-04T07:19:21.690Z,99.30
2017-12-04T07:20:26.717Z,99.30
2017-12-04T07:21:32.520Z,99.50
2017-12-04T07:22:37.791Z,99.40
2017-12-04T07:23:43.590Z,99.20
2017-12-04T07:24:48.901Z,99.20
2017-12-04T07:25:54.136Z,99.30
2017-12-04T07:26:59.157Z,99.10
2017-12-04T07:28:04.357Z,99.30
2017-12-04T07:29:10.236Z,99.20
2017-12-04T07:30:15.292Z,98.90
2017-12-04T07:31:20.278Z,99.10
2017-12-04T07:32:25.254Z,99.10
2017-12-04T07:33:31.100Z,98.80
2017-12-04T07:34:36.893Z,98.80
2017-12-04T07:35:42.347Z,98.80
2017-12-04T07:36:47.463Z,98.90
2017-12-04T07:37:52.456Z,99.00
2017-12-04T07:38:57.560Z,99.10
2017-12-04T07:40:03.594Z,99.40
2017-12-04T07:41:08.918Z,99.40
2017-12-04T07:42:13.967Z,99.50
2017-12-04T07:43:19.777Z,99.30
2017-12-04T07:44:25.765Z,99.40
2017-12-04T07:45:30.772Z,99.40
2017-12-04T07:46:36.661Z,99.70
2017-12-04T07:47:42.035Z,99.70
2017-12-04T07:48:47.096Z,99.60
2017-12-04T07:49:52.286Z,99.70
2017-12-04T07:50:57.356Z,99.80
2017-12-04T07:52:02.362Z,99.90
2017-12-04T07:53:07.680Z,99.90
2017-12-04T07:54:13.663Z,99.60
2017-12-04T07:55:18.873Z,99.60
2017-12-04T07:56:23.893Z,99.70
2017-12-04T07:57:28.965Z,99.70
2017-12-04T07:58:34.181Z,99.90
2017-12-04T07:59:39.274Z,99.70
2017-12-04T08:00:44.551Z,99.50
2017-12-04T08:01:49.649Z,99.50
2017-12-04T08:02:55.591Z,99.60
2017-12-04T08:04:01.008Z,99.60
2017-12-04T08:05:06.356Z,99.60
2017-12-04T08:06:11.664Z,99.60
2017-12-04T08:07:16.849Z,99.60
2017-12-04T08:08:22.677Z,99.50
2017-12-04T08:09:27.904Z,99.50
2017-12-04T08:10:32.944Z,99.50
2017-12-04T08:11:38.123Z,99.40
2017-12-04T08:12:43.225Z,99.40
2017-12-04T08:13:49.000Z,99.40
2017-12-04T08:14:54.534Z,99.70
2017-12-04T08:15:59.627Z,99.50
2017-12-04T08:17:05.624Z,99.50
2017-12-04T08:18:10.709Z,99.50
2017-12-04T08:19:16.649Z,99.50
2017-12-04T08:20:22.860Z,99.50
2017-12-04T08:21:28.064Z,99.50
2017-12-04T08:22:33.315Z,99.60
2017-12-04T08:23:38.573Z,99.90
2017-12-04T08:24:43.793Z,99.60
2017-12-04T08:25:49.105Z,99.60
2017-12-04T08:26:55.373Z,99.60
2017-12-04T08:28:00.527Z,99.30
2017-12-04T08:29:06.449Z,99.60
2017-12-04T08:30:11.531Z,99.60
2017-12-04T08:31:16.861Z,99.50
2017-12-04T08:32:22.274Z,99.50
2017-12-04T08:33:27.407Z,99.40
2017-12-04T08:34:32.542Z,99.30
2017-12-04T08:35:37.684Z,99.20
2017-12-04T08:36:42.712Z,99.30
2017-12-04T08:37:48.086Z,99.40
2017-12-04T08:38:53.889Z,99.60
2017-12-04T08:39:59.009Z,99.50
2017-12-04T08:41:04.095Z,99.40
2017-12-04T08:42:10.116Z,99.10
2017-12-04T08:43:16.051Z,98.90
2017-12-04T08:44:21.241Z,98.90
2017-12-04T08:45:26.314Z,98.90
2017-12-04T08:46:31.445Z,98.70
2017-12-04T08:47:36.728Z,98.80
2017-12-04T08:48:42.069Z,98.80
2017-12-04T08:49:47.406Z,98.80
2017-12-04T08:51:54.907Z,98.80
2017-12-04T08:53:00.776Z,98.80
2017-12-04T08:54:06.781Z,98.80
2017-12-04T08:55:11.974Z,98.70
2017-12-04T08:56:16.981Z,98.90
2017-12-04T08:57:22.862Z,98.80
2017-12-04T08:58:28.032Z,98.80
2017-12-04T08:59:33.365Z,98.90
2017-12-04T09:00:38.513Z,99.00
2017-12-04T09:01:44.412Z,98.90
2017-12-04T09:02:49.578Z,98.90
2017-12-04T09:03:55.449Z,98.60
2017-12-04T09:05:00.589Z,98.60
2017-12-04T09:06:05.696Z,98.80
2017-12-04T09:07:11.039Z,98.80
2017-12-04T09:08:16.258Z,98.90
2017-12-04T09:09:24.045Z,99.10
2017-12-04T09:10:29.321Z,99.20
2017-12-04T09:11:34.556Z,99.10
2017-12-04T09:12:39.796Z,99.10
2017-12-04T09:13:44.920Z,99.30
2017-12-04T09:14:51.198Z,99.30
2017-12-04T09:15:57.140Z,99.20
2017-12-04T09:17:03.258Z,99.10
2017-12-04T09:18:08.314Z,99.10
2017-12-04T09:19:14.262Z,98.90
2017-12-04T09:20:20.016Z,99.10
2017-12-04T09:21:25.321Z,99.10
2017-12-04T09:22:30.440Z,98.90
2017-12-04T09:23:35.604Z,98.90
2017-12-04T09:24:40.718Z,99.00
2017-12-04T09:25:45.798Z,99.00
2017-12-04T09:26:51.167Z,98.90
2017-12-04T09:27:57.013Z,99.00
2017-12-04T09:29:02.943Z,98.70
2017-12-04T09:30:08.144Z,98.70
2017-12-04T09:31:13.238Z,98.70
2017-12-04T09:32:18.499Z,98.70
2017-12-04T09:33:23.638Z,98.80
2017-12-04T09:34:28.750Z,98.60
2017-12-04T09:35:33.990Z,98.70
2017-12-04T09:36:39.239Z,98.60
2017-12-04T09:37:44.452Z,98.60
2017-12-04T09:38:49.714Z,98.80
2017-12-04T09:39:55.616Z,98.70
2017-12-04T09:41:00.801Z,98.70
2017-12-04T09:42:05.994Z,98.80
2017-12-04T09:43:12.425Z,99.10
2017-12-04T09:44:17.881Z,99.10
2017-12-04T09:45:23.164Z,99.10
2017-12-04T09:46:29.179Z,98.80
2017-12-04T09:47:35.008Z,98.90
2017-12-04T09:48:40.852Z,99.00
2017-12-04T09:49:47.031Z,99.10
2017-12-04T09:50:52.101Z,99.10
2017-12-04T09:51:57.209Z,99.30
2017-12-04T09:53:02.330Z,98.80
2017-12-04T09:54:07.881Z,98.60
2017-12-04T09:55:13.337Z,98.60
2017-12-04T09:56:18.463Z,98.70
2017-12-04T09:57:23.661Z,98.60
2017-12-04T09:58:29.600Z,98.70
2017-12-04T09:59:34.732Z,98.80
2017-12-04T10:00:40.352Z,98.50
2017-12-04T10:01:45.746Z,98.40
2017-12-04T10:02:51.846Z,98.40
2017-12-04T10:03:56.942Z,98.40
2017-12-04T10:05:02.134Z,98.60
2017-12-04T10:06:07.540Z,98.50
2017-12-04T10:07:12.726Z,98.50
2017-12-04T10:08:17.862Z,98.70
2017-12-04T10:09:23.059Z,98.70
2017-12-04T10:10:28.481Z,98.70
2017-12-04T10:11:34.294Z,98.60
2017-12-04T10:12:39.428Z,98.50
2017-12-04T10:13:44.537Z,98.20
2017-12-04T10:14:49.684Z,98.10
2017-12-04T10:15:54.786Z,98.40
2017-12-04T10:17:00.499Z,98.50
2017-12-04T10:18:06.423Z,98.50
2017-12-04T10:19:12.296Z,98.30
2017-12-04T10:20:17.454Z,98.30
2017-12-04T10:21:22.692Z,98.30
2017-12-04T10:22:28.141Z,98.10
2017-12-04T10:23:33.265Z,98.10
2017-12-04T10:24:38.439Z,98.30
2017-12-04T10:25:43.751Z,98.50
2017-12-04T10:26:49.647Z,98.10
2017-12-04T10:27:54.970Z,98.10
2017-12-04T10:29:00.279Z,97.80
2017-12-04T10:30:05.681Z,97.80
2017-12-04T10:31:11.665Z,98.00
2017-12-04T10:32:17.186Z,98.00
2017-12-04T10:33:22.716Z,97.60
2017-12-04T10:34:27.796Z,97.60
2017-12-04T10:35:33.434Z,97.80
2017-12-04T10:36:38.672Z,97.70
2017-12-04T10:37:43.824Z,97.70
2017-12-04T10:38:50.033Z,97.70
2017-12-04T10:39:55.191Z,97.70
2017-12-04T10:41:00.397Z,97.60
2017-12-04T10:42:05.598Z,97.40
2017-12-04T10:43:10.699Z,97.60
2017-12-04T10:44:16.917Z,97.30
2017-12-04T10:45:22.955Z,97.20
2017-12-04T10:46:28.073Z,97.20
2017-12-04T10:47:33.224Z,97.10
2017-12-04T10:48:38.249Z,97.20
2017-12-04T10:49:43.445Z,97.30
2017-12-04T10:50:48.959Z,97.40
2017-12-04T10:51:54.088Z,97.60
2017-12-04T10:52:59.246Z,97.70
2017-12-04T10:54:04.437Z,97.50
2017-12-04T10:55:09.749Z,97.30
2017-12-04T10:56:25.782Z,97.40
2017-12-04T10:57:36.002Z,97.40
2017-12-04T10:58:41.490Z,97.70
2017-12-04T10:59:46.782Z,97.70
2017-12-04T11:00:52.568Z,97.70
2017-12-04T11:01:58.051Z,97.80
2017-12-04T11:03:03.204Z,97.90
2017-12-04T11:04:08.400Z,97.90
2017-12-04T11:05:13.536Z,98.00
2017-12-04T11:06:19.588Z,97.80
2017-12-04T11:07:24.704Z,97.80
2017-12-04T11:08:29.881Z,97.80
2017-12-04T11:09:35.262Z,97.80
2017-12-04T11:10:40.439Z,98.10
2017-12-04T11:11:45.691Z,98.00
2017-12-04T11:12:50.908Z,97.90
2017-12-04T11:13:56.966Z,98.00
2017-12-04T11:15:02.865Z,98.10
2017-12-04T11:16:08.102Z,98.10
2017-12-04T11:17:13.807Z,98.00
2017-12-04T11:18:18.954Z,97.90
2017-12-04T11:19:24.215Z,97.70
2017-12-04T11:20:29.375Z,97.80
2017-12-04T11:21:34.884Z,97.90
2017-12-04T11:22:41.898Z,98.10
2017-12-04T11:23:47.158Z,98.10
2017-12-04T11:24:52.840Z,98.10
2017-12-04T11:25:58.043Z,98.20
2017-12-04T11:27:03.156Z,98.20
2017-12-04T11:28:08.736Z,98.20
2017-12-04T11:29:13.904Z,98.20
2017-12-04T11:30:19.088Z,98.20
2017-12-04T11:31:24.290Z,98.30
2017-12-04T11:32:29.523Z,98.20
2017-12-04T11:33:35.726Z,97.80
2017-12-04T11:34:40.922Z,97.80
2017-12-04T11:35:46.089Z,98.00
2017-12-04T11:36:51.179Z,98.00
2017-12-04T11:37:56.505Z,97.90
2017-12-04T11:39:02.473Z,97.90
2017-12-04T11:40:07.607Z,97.90
2017-12-04T11:41:43.185Z,98.00
2017-12-04T11:42:48.366Z,98.10
2017-12-04T11:43:53.655Z,98.00
2017-12-04T11:44:59.805Z,98.10
2017-12-04T11:46:04.940Z,98.10
2017-12-04T11:47:10.875Z,98.10
2017-12-04T11:48:16.041Z,98.10
2017-12-04T11:49:21.389Z,98.30
2017-12-04T11:50:26.511Z,98.30
2017-12-04T11:51:32.001Z,98.40
2017-12-04T11:52:37.910Z,98.50
2017-12-04T11:53:43.185Z,98.50
2017-12-04T11:54:49.250Z,98.70
2017-12-04T11:55:54.358Z,98.70
2017-12-04T11:57:00.263Z,98.60
2017-12-04T11:58:05.413Z,98.60
2017-12-04T11:59:10.533Z,98.70
2017-12-04T12:00:16.019Z,98.60
2017-12-04T12:01:21.144Z,98.60
2017-12-04T12:02:26.606Z,98.60
2017-12-04T12:03:31.753Z,98.40
2017-12-04T12:04:36.917Z,98.50
2017-12-04T12:05:42.297Z,98.60
2017-12-04T12:06:47.452Z,98.50
2017-12-04T12:07:53.309Z,98.60
2017-12-04T12:08:59.266Z,98.40
2017-12-04T12:10:04.425Z,98.40
2017-12-04T12:11:09.951Z,98.60
2017-12-04T12:12:15.161Z,98.70
2017-12-04T12:13:20.313Z,98.80
2017-12-04T12:14:25.437Z,98.50
2017-12-04T12:15:31.330Z,98.40
2017-12-04T12:16:37.566Z,98.30
2017-12-04T12:17:42.732Z,98.30
2017-12-04T12:18:47.906Z,98.20
2017-12-04T12:19:53.399Z,98.30
2017-12-04T12:20:59.285Z,98.40
2017-12-04T12:22:04.591Z,98.30
2017-12-04T12:23:09.733Z,98.60
2017-12-04T12:24:14.827Z,98.70
2017-12-04T12:25:20.069Z,98.70
2017-12-04T12:26:25.289Z,98.70
2017-12-04T12:27:30.397Z,98.50
2017-12-04T12:28:35.509Z,98.50
2017-12-04T12:29:41.354Z,98.50
2017-12-04T12:30:47.585Z,98.50
2017-12-04T12:31:52.843Z,98.50
2017-12-04T12:32:58.690Z,98.60
2017-12-04T12:34:03.864Z,98.60
2017-12-04T12:35:09.041Z,98.60
2017-12-04T12:36:14.851Z,98.90
2017-12-04T12:37:20.053Z,98.80
2017-12-04T12:38:25.218Z,98.80
2017-12-04T12:39:30.358Z,98.60
2017-12-04T12:40:36.550Z,98.80
2017-12-04T12:41:41.770Z,98.80
2017-12-04T12:42:47.088Z,98.80
2017-12-04T12:43:52.259Z,98.70
2017-12-04T12:44:57.390Z,98.70
2017-12-04T12:46:04.337Z,98.80
2017-12-04T12:47:09.917Z,98.70
2017-12-04T12:48:15.641Z,98.80
2017-12-04T12:49:20.929Z,98.90
2017-12-04T12:50:28.322Z,99.40
2017-12-04T12:51:36.585Z,99.10
2017-12-04T12:52:42.692Z,99.20
2017-12-04T12:53:48.117Z,99.20
2017-12-04T12:54:53.325Z,99.30
2017-12-04T12:55:58.458Z,99.20
2017-12-04T12:57:30.726Z,99.10
2017-12-04T12:58:35.992Z,99.10
2017-12-04T12:59:41.932Z,99.00
2017-12-04T13:00:49.136Z,98.90
2017-12-04T13:01:55.177Z,99.10
2017-12-04T13:03:00.296Z,99.10
2017-12-04T13:04:05.627Z,99.00
2017-12-04T13:05:10.791Z,98.90
2017-12-04T13:06:30.018Z,99.00
2017-12-04T13:07:36.153Z,98.90
2017-12-04T13:08:41.219Z,98.90
2017-12-04T13:09:46.360Z,98.90
2017-12-04T14:55:29.154Z,96.50
2017-12-04T14:56:34.364Z,96.60
2017-12-04T14:57:39.563Z,96.50
2017-12-04T14:58:44.823Z,96.60
2017-12-04T14:59:50.311Z,96.70
2017-12-04T15:00:55.981Z,96.70
2017-12-04T15:02:01.231Z,96.60
2017-12-04T15:03:06.542Z,96.70
2017-12-04T15:04:11.745Z,96.70
2017-12-04T15:05:17.027Z,96.60
2017-12-04T15:06:22.364Z,96.70
2017-12-04T15:07:28.412Z,96.60
2017-12-04T15:08:33.648Z,96.60
2017-12-04T15:09:40.049Z,96.70
2017-12-04T15:10:45.324Z,96.70
2017-12-04T15:11:50.549Z,96.70
2017-12-04T15:12:56.060Z,96.40
2017-12-04T15:14:02.058Z,96.60
2017-12-04T15:15:08.348Z,96.60
2017-12-04T15:16:13.666Z,96.60
2017-12-04T15:17:19.164Z,96.70
2017-12-04T15:18:25.371Z,96.70
2017-12-04T15:19:30.708Z,96.60
2017-12-04T15:20:37.847Z,96.70
2017-12-04T15:21:43.158Z,96.70
2017-12-04T15:22:49.293Z,96.90
2017-12-04T15:23:55.309Z,96.90
2017-12-04T15:25:00.794Z,96.90
2017-12-04T15:26:06.824Z,96.90
2017-12-04T15:27:12.786Z,97.00
2017-12-04T15:28:27.558Z,96.90
2017-12-04T15:29:34.699Z,96.80
2017-12-04T15:30:40.888Z,96.80
2017-12-04T15:31:46.302Z,96.80
2017-12-04T15:32:51.560Z,96.70
2017-12-04T15:33:56.744Z,96.40
2017-12-04T15:35:02.660Z,96.60
2017-12-04T15:36:08.285Z,96.60
2017-12-04T15:37:13.514Z,96.50
2017-12-04T15:38:18.770Z,96.50
2017-12-04T15:39:24.340Z,96.50
2017-12-04T15:40:29.701Z,96.60
2017-12-04T15:41:35.070Z,96.60
2017-12-04T15:42:40.657Z,96.90
2017-12-04T15:43:45.983Z,96.50
2017-12-04T15:44:51.305Z,96.70
2017-12-04T15:45:56.500Z,96.80
2017-12-04T15:47:01.720Z,96.80
2017-12-04T15:48:07.237Z,96.70
2017-12-04T15:49:12.537Z,96.60
2017-12-04T15:50:30.471Z,96.70
2017-12-04T15:51:37.339Z,96.60